Time;durP1;ratioP1;P1;durP2;ratioP2;P2;SDS_P1;SDS_P2;PMS_P1;PMS_P2;Temp;Humidity;BMP_temperature;BMP_pressure;BME280_temperature;BME280_humidity;BME280_pressure;Samples;Min_cycle;Max_cycle;Signal;HPM_P1;HPM_P2
2022/09/26 00:00:45;;;;;;;5.13;2.30;;;11.70;99.90;;;;;;5055176;28;20028;-82
2022/09/26 00:03:11;;;;;;;7.93;2.43;;;11.70;99.90;;;;;;5073642;28;20036;-82
2022/09/26 00:05:38;;;;;;;4.60;2.10;;;11.70;99.90;;;;;;5055554;28;20028;-82
2022/09/26 00:08:05;;;;;;;9.07;2.50;;;11.70;99.90;;;;;;5073580;28;20090;-82
2022/09/26 00:10:32;;;;;;;5.40;2.30;;;11.80;99.90;;;;;;5073315;28;20044;-81
2022/09/26 00:12:58;;;;;;;7.17;2.17;;;11.80;99.90;;;;;;5073416;28;20043;-82
2022/09/26 00:15:24;;;;;;;5.27;1.87;;;11.80;99.90;;;;;;5073283;28;20028;-82
2022/09/26 00:17:49;;;;;;;5.40;2.40;;;11.80;99.90;;;;;;5073116;28;20029;-82
2022/09/26 00:20:16;;;;;;;5.50;2.43;;;11.90;99.90;;;;;;5072955;28;20035;-82
2022/09/26 00:22:41;;;;;;;5.43;2.13;;;11.90;99.90;;;;;;5055448;28;20411;-82
2022/09/26 00:25:07;;;;;;;4.97;2.40;;;11.80;99.90;;;;;;5073293;28;20032;-82
2022/09/26 00:27:33;;;;;;;6.50;2.50;;;11.90;99.90;;;;;;5072968;28;20060;-82
2022/09/26 00:29:59;;;;;;;5.53;2.33;;;11.90;99.90;;;;;;5072578;28;20043;-82
2022/09/26 00:32:25;;;;;;;4.53;2.40;;;11.90;99.90;;;;;;5055003;28;20073;-82
2022/09/26 00:34:51;;;;;;;5.67;2.23;;;12.00;99.90;;;;;;5072860;28;20037;-82
2022/09/26 00:37:16;;;;;;;4.73;2.33;;;12.00;99.90;;;;;;5072672;28;20021;-82
2022/09/26 00:39:42;;;;;;;6.23;2.50;;;11.90;99.90;;;;;;5072293;28;20064;-82
2022/09/26 00:42:17;;;;;;;5.20;2.30;;;11.90;99.90;;;;;;5054935;28;20056;-82
2022/09/26 00:44:53;;;;;;;4.20;2.37;;;11.90;99.90;;;;;;5054658;28;20086;-82
2022/09/26 00:47:36;;;;;;;5.23;2.30;;;11.90;99.90;;;;;;5072727;28;20103;-82
2022/09/26 00:50:25;;;;;;;6.33;2.43;;;11.90;99.90;;;;;;5054590;28;20389;-82
2022/09/26 00:53:24;;;;;;;7.07;2.60;;;11.90;99.90;;;;;;5072518;28;20024;-82
2022/09/26 00:55:58;;;;;;;5.28;2.90;;;11.90;99.90;;;;;;5039589;28;20040;-82
2022/09/26 00:58:32;;;;;;;6.00;2.43;;;11.90;99.90;;;;;;5038073;28;20036;-82
2022/09/26 01:00:59;;;;;;;5.90;2.63;;;11.90;99.90;;;;;;5054692;28;20081;-82
2022/09/26 01:03:26;;;;;;;6.60;2.50;;;11.90;99.90;;;;;;5037864;28;20102;-82
2022/09/26 01:05:53;;;;;;;7.23;2.87;;;11.90;99.90;;;;;;5054534;28;20044;-82
2022/09/26 01:08:24;;;;;;;5.87;2.90;;;11.90;99.90;;;;;;5072293;28;20174;-82
2022/09/26 01:10:50;;;;;;;5.97;2.57;;;11.90;99.90;;;;;;5054191;28;20024;-82
2022/09/26 01:13:16;;;;;;;4.50;2.40;;;11.90;99.90;;;;;;5072382;28;20401;-82
2022/09/26 01:15:41;;;;;;;4.67;2.37;;;11.90;99.90;;;;;;5037476;28;20029;-82
2022/09/26 01:18:07;;;;;;;5.80;2.47;;;11.90;99.90;;;;;;5072093;28;20020;-82
2022/09/26 01:20:59;;;;;;;6.53;2.60;;;12.00;99.90;;;;;;5072006;28;20558;-82
2022/09/26 01:23:34;;;;;;;6.67;3.20;;;12.00;99.90;;;;;;5072311;28;20024;-82
2022/09/26 01:26:18;;;;;;;4.60;2.80;;;12.00;99.90;;;;;;5037239;28;20059;-82
2022/09/26 01:29:18;;;;;;;3.97;2.60;;;12.00;99.90;;;;;;5053566;28;20082;-81
2022/09/26 01:35:20;;;;;;;5.13;2.72;;;12.20;99.90;;;;;;5013092;28;20036;-82
2022/09/26 01:37:58;;;;;;;7.35;2.95;;;12.20;99.90;;;;;;5036472;28;20028;-82
2022/09/26 01:40:39;;;;;;;6.43;3.10;;;12.30;99.90;;;;;;5053506;28;20484;-82
2022/09/26 01:43:22;;;;;;;8.47;2.80;;;12.30;99.90;;;;;;5037077;28;20112;-82
2022/09/26 01:46:07;;;;;;;8.05;3.13;;;12.30;99.90;;;;;;5053674;28;20078;-82
2022/09/26 01:48:39;;;;;;;4.23;2.40;;;12.40;99.90;;;;;;5071409;28;20024;-82
2022/09/26 01:51:35;;;;;;;6.40;2.60;;;12.40;99.90;;;;;;5052959;28;20089;-82
2022/09/26 01:54:07;;;;;;;9.93;3.20;;;12.40;99.90;;;;;;5053758;28;20036;-82
2022/09/26 01:56:37;;;;;;;5.07;2.90;;;12.40;99.90;;;;;;5053636;28;20028;-82
2022/09/26 01:59:09;;;;;;;8.10;3.70;;;12.40;99.90;;;;;;5053282;28;20036;-82
2022/09/26 02:01:39;;;;;;;7.07;3.70;;;12.40;99.90;;;;;;5053356;28;20043;-82
2022/09/26 02:04:15;;;;;;;5.20;2.78;;;12.40;99.90;;;;;;5071435;28;20074;-82
2022/09/26 02:06:55;;;;;;;7.27;3.43;;;12.40;99.90;;;;;;5071043;28;20428;-82
2022/09/26 02:09:27;;;;;;;6.37;3.50;;;12.50;99.90;;;;;;5053310;28;20032;-82
2022/09/26 02:12:00;;;;;;;7.47;3.45;;;12.50;99.90;;;;;;5071220;28;20078;-82
2022/09/26 02:14:32;;;;;;;10.02;3.88;;;12.50;99.90;;;;;;5053481;28;20038;-82
2022/09/26 02:17:07;;;;;;;7.95;3.92;;;12.50;99.90;;;;;;5052960;28;20476;-82
2022/09/26 02:19:58;;;;;;;6.13;3.50;;;12.50;99.90;;;;;;5052947;28;20304;-81
2022/09/26 02:22:32;;;;;;;7.85;4.10;;;12.60;99.90;;;;;;5052496;28;20037;-81
2022/09/26 02:24:59;;;;;;;7.97;3.85;;;12.50;99.90;;;;;;5036529;28;20047;-82
2022/09/26 02:27:26;;;;;;;7.93;4.70;;;12.50;99.90;;;;;;5053111;28;20037;-82
2022/09/26 02:29:53;;;;;;;7.00;3.97;;;12.50;99.90;;;;;;5052571;28;20031;-82
2022/09/26 02:32:25;;;;;;;7.43;4.80;;;12.60;99.90;;;;;;5052963;28;20025;-82
2022/09/26 02:34:52;;;;;;;8.73;4.35;;;12.60;99.90;;;;;;5052831;28;20074;-82
2022/09/26 02:37:20;;;;;;;7.97;4.30;;;12.60;99.90;;;;;;5052522;28;20079;-82
2022/09/26 02:39:47;;;;;;;8.85;4.70;;;12.60;99.90;;;;;;5052719;28;20215;-82
2022/09/26 02:42:35;;;;;;;6.80;4.30;;;12.60;99.90;;;;;;5052719;28;20469;-82
2022/09/26 02:45:16;;;;;;;8.85;5.00;;;12.50;99.90;;;;;;5052751;28;20075;-82
2022/09/26 02:48:12;;;;;;;6.43;3.92;;;12.60;99.90;;;;;;5052427;28;20116;-82
2022/09/26 02:50:51;;;;;;;9.43;4.40;;;12.60;99.90;;;;;;5052405;28;20032;-82
2022/09/26 02:53:37;;;;;;;7.10;4.13;;;12.60;99.90;;;;;;5036406;28;20028;-82
2022/09/26 02:56:03;;;;;;;8.38;4.38;;;12.60;99.90;;;;;;5052237;28;20033;-82
2022/09/26 02:58:34;;;;;;;9.98;4.88;;;12.60;99.90;;;;;;5052344;28;20052;-82
2022/09/26 03:01:14;;;;;;;9.98;4.75;;;12.60;99.90;;;;;;5052707;28;20397;-82
2022/09/26 03:03:50;;;;;;;7.88;4.65;;;12.60;99.90;;;;;;5054966;28;20025;-82
2022/09/26 03:06:21;;;;;;;8.45;4.47;;;12.60;99.90;;;;;;5074908;28;20048;-81
2022/09/26 03:08:50;;;;;;;8.70;5.00;;;12.60;99.90;;;;;;5056791;28;20377;-82
2022/09/26 03:11:20;;;;;;;11.43;4.97;;;12.60;99.90;;;;;;5040073;28;20115;-82
2022/09/26 03:13:48;;;;;;;7.25;4.57;;;12.60;99.90;;;;;;5074624;28;20115;-82
2022/09/26 03:16:16;;;;;;;8.15;5.25;;;12.60;99.90;;;;;;5056296;28;20031;-82
2022/09/26 03:18:55;;;;;;;9.73;4.90;;;12.60;99.90;;;;;;5039418;28;20077;-81
2022/09/26 03:21:22;;;;;;;8.73;5.13;;;12.60;99.90;;;;;;5056512;28;20259;-82
2022/09/26 03:23:48;;;;;;;7.75;4.65;;;12.60;99.90;;;;;;5056576;28;20066;-82
2022/09/26 03:26:19;;;;;;;9.85;5.30;;;12.60;99.90;;;;;;5057039;28;20036;-81
2022/09/26 03:28:55;;;;;;;9.55;5.00;;;12.60;99.90;;;;;;5070720;22;20032;-81
2022/09/26 03:31:24;;;;;;;10.83;5.43;;;12.60;99.90;;;;;;5035920;28;20037;-81
2022/09/26 03:33:58;;;;;;;9.63;5.53;;;12.60;99.90;;;;;;5054085;28;20021;-81
2022/09/26 03:36:24;;;;;;;9.63;5.45;;;12.70;99.90;;;;;;5019318;28;20039;-80
2022/09/26 03:38:50;;;;;;;11.18;5.15;;;12.60;99.90;;;;;;5052388;28;20112;-81
2022/09/26 03:41:36;;;;;;;7.88;5.07;;;12.60;99.90;;;;;;5053212;28;20033;-81
2022/09/26 03:44:11;;;;;;;10.30;5.85;;;12.60;99.90;;;;;;5053894;28;20021;-81
2022/09/26 03:46:55;;;;;;;9.73;5.60;;;12.60;99.90;;;;;;5053705;28;20131;-81
2022/09/26 03:49:21;;;;;;;9.48;5.97;;;12.60;99.90;;;;;;5053418;28;20120;-81
2022/09/26 03:51:47;;;;;;;11.37;5.37;;;12.70;99.90;;;;;;5035744;28;20056;-81
2022/09/26 03:54:13;;;;;;;8.10;5.63;;;12.70;99.90;;;;;;5052351;28;20036;-81
2022/09/26 03:56:40;;;;;;;10.98;5.60;;;12.60;99.90;;;;;;5035537;28;20041;-81
2022/09/26 03:59:06;;;;;;;9.52;5.82;;;12.60;99.90;;;;;;5052009;28;20116;-81
2022/09/26 04:01:32;;;;;;;7.82;5.45;;;12.60;99.90;;;;;;5035757;28;20025;-81
2022/09/26 04:03:58;;;;;;;10.88;5.90;;;12.60;99.90;;;;;;5035676;28;20115;-80
2022/09/26 04:06:24;;;;;;;9.50;5.28;;;12.60;99.90;;;;;;5051903;28;20033;-81
2022/09/26 04:08:51;;;;;;;9.38;5.47;;;12.60;99.90;;;;;;5051840;28;20409;-81
2022/09/26 04:11:20;;;;;;;10.70;5.22;;;12.60;99.90;;;;;;5035435;28;20063;-80
2022/09/26 04:13:48;;;;;;;10.32;5.78;;;12.60;99.90;;;;;;5034836;28;20032;-80
2022/09/26 04:16:14;;;;;;;10.20;5.90;;;12.60;99.90;;;;;;5034968;28;20037;-81
2022/09/26 04:18:47;;;;;;;9.07;5.17;;;12.60;99.90;;;;;;5036053;28;20029;-81
2022/09/26 04:21:13;;;;;;;10.07;5.45;;;12.60;99.90;;;;;;5051680;28;20032;-81
2022/09/26 04:23:40;;;;;;;8.45;5.13;;;12.60;99.90;;;;;;5051916;28;20096;-81
2022/09/26 04:26:18;;;;;;;8.57;5.55;;;12.60;99.90;;;;;;5052935;28;20040;-81
2022/09/26 04:28:46;;;;;;;;;;;12.60;99.90;;;;;;5035220;28;20543;-80
2022/09/26 04:31:12;;;;;;;7.93;4.97;;;12.60;99.90;;;;;;5051653;28;19951;-81
2022/09/26 04:33:46;;;;;;;12.95;5.15;;;12.60;99.90;;;;;;5035047;28;20033;-81
2022/09/26 04:36:13;;;;;;;7.20;4.97;;;12.60;99.90;;;;;;5034717;28;20029;-81
2022/09/26 04:38:40;;;;;;;11.63;5.32;;;12.60;99.90;;;;;;5052565;28;20071;-81
2022/09/26 04:41:18;;;;;;;8.55;5.10;;;12.50;99.90;;;;;;5034829;28;20032;-81
2022/09/26 04:43:46;;;;;;;7.72;4.95;;;12.60;99.90;;;;;;5034886;28;20489;-81
2022/09/26 04:46:17;;;;;;;8.25;4.82;;;12.60;99.90;;;;;;5034520;28;20032;-81
2022/09/26 04:48:44;;;;;;;;;;;12.60;99.90;;;;;;5035254;28;20033;-80
2022/09/26 04:51:17;;;;;;;9.57;5.22;;;12.60;99.90;;;;;;5035373;28;19913;-80
2022/09/26 04:53:44;;;;;;;;;;;12.50;99.90;;;;;;5035166;28;20570;-81
2022/09/26 04:56:17;;;;;;;8.77;4.83;;;12.50;99.90;;;;;;5034283;28;20297;-81
2022/09/26 04:58:44;;;;;;;9.07;5.50;;;12.50;99.90;;;;;;5050786;28;20029;-81
2022/09/26 05:01:13;;;;;;;12.90;6.32;;;12.60;99.90;;;;;;5050940;28;20025;-81
2022/09/26 05:03:56;;;;;;;12.70;5.97;;;12.60;99.90;;;;;;5034436;28;20052;-80
2022/09/26 05:06:22;;;;;;;10.57;5.78;;;12.60;99.90;;;;;;5034353;28;20216;-81
2022/09/26 05:08:48;;;;;;;9.80;5.65;;;12.50;99.90;;;;;;5050736;28;20027;-81
2022/09/26 05:11:20;;;;;;;8.90;5.07;;;12.60;99.90;;;;;;5034328;28;20048;-80
2022/09/26 05:13:47;;;;;;;10.48;5.07;;;12.50;99.90;;;;;;5034184;28;20025;-81
2022/09/26 05:16:13;;;;;;;12.48;4.90;;;12.50;99.90;;;;;;5033862;28;20021;-80
2022/09/26 05:18:40;;;;;;;11.25;5.25;;;12.50;99.90;;;;;;5033935;28;20028;-81
2022/09/26 05:21:07;;;;;;;10.90;5.18;;;12.50;99.90;;;;;;5034023;28;20033;-80
2022/09/26 05:26:47;;;;;;;8.95;4.90;;;12.60;99.90;;;;;;5033105;28;20029;-80
2022/09/26 05:29:13;;;;;;;10.20;4.80;;;12.50;99.90;;;;;;5033775;28;20033;-81
2022/09/26 05:31:45;;;;;;;10.03;5.03;;;12.50;99.90;;;;;;5033878;28;20116;-80
2022/09/26 05:34:12;;;;;;;17.95;9.32;;;12.50;99.90;;;;;;5033910;28;20073;-80
2022/09/26 05:36:39;;;;;;;10.63;5.55;;;12.50;99.90;;;;;;5033761;28;20029;-81
2022/09/26 05:40:55;;;;;;;9.48;5.30;;;12.50;99.90;;;;;;5033490;28;20036;-80
2022/09/26 05:41:53;;;;;;;12.93;4.70;;;12.50;99.90;;;;;;5050359;28;20117;-81
2022/09/26 05:44:19;;;;;;;8.57;4.75;;;12.50;99.90;;;;;;5051466;28;20030;-81
2022/09/26 05:46:46;;;;;;;8.07;4.35;;;12.50;99.90;;;;;;5033424;28;20044;-81
2022/09/26 05:49:13;;;;;;;9.88;4.00;;;12.50;99.90;;;;;;5033324;28;20025;-81
2022/09/26 05:51:40;;;;;;;11.23;4.30;;;12.50;99.90;;;;;;5033530;28;20078;-81
2022/09/26 05:54:09;;;;;;;9.40;3.90;;;12.50;99.90;;;;;;5033722;28;20080;-81
2022/09/26 05:56:36;;;;;;;8.75;3.83;;;12.50;99.90;;;;;;5033356;28;20374;-81
2022/09/26 05:59:27;;;;;;;7.88;3.70;;;12.60;99.90;;;;;;5050842;28;20033;-81
2022/09/26 06:02:11;;;;;;;9.85;4.07;;;12.60;99.90;;;;;;5051295;28;20557;-81
2022/09/26 06:05:00;;;;;;;9.70;3.65;;;12.50;99.90;;;;;;5036462;28;20477;-81
2022/09/26 06:07:42;;;;;;;7.80;3.25;;;12.60;99.90;;;;;;5033209;28;20052;-81
2022/09/26 06:10:13;;;;;;;9.00;3.75;;;12.50;99.90;;;;;;5032918;28;20025;-81
2022/09/26 06:12:52;;;;;;;7.97;3.43;;;12.60;99.90;;;;;;5048209;28;20021;-81
2022/09/26 06:15:18;;;;;;;6.97;3.03;;;12.50;99.90;;;;;;5050964;28;20064;-81
2022/09/26 06:17:44;;;;;;;8.85;3.30;;;12.60;99.90;;;;;;5049540;28;20103;-81
2022/09/26 06:20:10;;;;;;;9.55;2.80;;;12.60;99.90;;;;;;5049388;28;20024;-81
2022/09/26 06:22:42;;;;;;;7.75;2.90;;;12.60;99.90;;;;;;5049853;28;20084;-81
2022/09/26 06:25:10;;;;;;;7.60;2.95;;;12.60;99.90;;;;;;5049644;28;20028;-81
2022/09/26 06:27:41;;;;;;;7.30;3.22;;;12.60;99.90;;;;;;5049388;28;20554;-81
2022/09/26 06:30:12;;;;;;;9.00;3.00;;;12.60;99.90;;;;;;5032537;28;20504;-81
2022/09/26 06:32:38;;;;;;;8.38;2.80;;;12.60;99.90;;;;;;5049586;28;20064;-80
2022/09/26 06:35:27;;;;;;;9.68;3.13;;;12.70;99.90;;;;;;5021884;28;20063;-80
2022/09/26 06:38:08;;;;;;;11.27;3.25;;;12.70;99.90;;;;;;5050501;28;20505;-81
2022/09/26 06:40:34;;;;;;;7.15;2.33;;;12.70;99.90;;;;;;5050371;28;20108;-81
2022/09/26 06:43:00;;;;;;;6.80;2.45;;;12.70;99.90;;;;;;5049362;28;20029;-81
2022/09/26 06:45:44;;;;;;;7.32;2.70;;;12.70;99.90;;;;;;5050562;28;20512;-81
2022/09/26 06:48:24;;;;;;;8.00;3.00;;;12.70;99.90;;;;;;5049425;28;20090;-81
2022/09/26 06:51:16;;;;;;;6.47;2.60;;;12.70;99.90;;;;;;5047239;28;20317;-81
2022/09/26 06:53:44;;;;;;;7.75;2.50;;;12.70;99.90;;;;;;5032867;28;20029;-81
2022/09/26 06:56:12;;;;;;;5.70;2.83;;;12.70;99.90;;;;;;5049003;28;20126;-81
2022/09/26 06:58:38;;;;;;;7.68;2.47;;;12.70;99.90;;;;;;5048936;28;20061;-81
2022/09/26 07:01:05;;;;;;;7.28;2.70;;;12.70;99.90;;;;;;5032561;28;20437;-80
2022/09/26 07:03:40;;;;;;;6.78;2.58;;;12.70;99.90;;;;;;5050488;28;20332;-81
2022/09/26 07:06:28;;;;;;;10.25;3.00;;;12.70;99.90;;;;;;5032653;28;20112;-81
2022/09/26 07:08:55;;;;;;;8.88;3.25;;;12.60;99.90;;;;;;5032122;28;20047;-81
2022/09/26 07:11:41;;;;;;;7.95;3.00;;;12.60;99.90;;;;;;5018528;28;20115;-81
2022/09/26 07:14:07;;;;;;;10.13;2.80;;;12.70;99.90;;;;;;5032387;28;20039;-81
2022/09/26 07:16:33;;;;;;;7.57;2.53;;;12.60;99.90;;;;;;5032215;28;20033;-81
2022/09/26 07:19:17;;;;;;;8.25;2.58;;;12.60;99.90;;;;;;5049053;28;20090;-81
2022/09/26 07:22:14;;;;;;;7.80;2.63;;;12.60;99.90;;;;;;5030316;28;20204;-81
2022/09/26 07:24:45;;;;;;;6.90;2.58;;;12.60;99.90;;;;;;5049304;28;20025;-81
2022/09/26 07:27:11;;;;;;;6.37;2.50;;;12.60;99.90;;;;;;5032234;28;20033;-81
2022/09/26 07:29:37;;;;;;;5.95;2.60;;;12.60;99.90;;;;;;5048435;28;20037;-81
2022/09/26 07:32:03;;;;;;;6.20;3.05;;;12.60;99.90;;;;;;5048994;28;20086;-81
2022/09/26 07:34:39;;;;;;;7.20;2.88;;;12.60;99.90;;;;;;5048867;28;20040;-81
2022/09/26 07:37:06;;;;;;;5.40;2.70;;;12.60;99.90;;;;;;5048591;28;20103;-81
2022/09/26 07:39:32;;;;;;;7.23;2.80;;;12.60;99.90;;;;;;5031948;28;20032;-81
2022/09/26 07:42:02;;;;;;;5.63;2.95;;;12.60;99.90;;;;;;5032235;28;20104;-81
2022/09/26 07:44:28;;;;;;;6.80;2.97;;;12.60;99.90;;;;;;5032110;28;20477;-81
2022/09/26 07:52:51;;;;;;;7.03;2.67;;;12.60;99.90;;;;;;5029994;28;20036;-81
2022/09/26 07:55:26;;;;;;;6.97;3.20;;;12.60;99.90;;;;;;5052546;28;20036;-81
2022/09/26 07:58:24;;;;;;;8.20;3.35;;;12.60;99.90;;;;;;5015509;28;20021;-81
2022/09/26 08:01:13;;;;;;;9.93;3.28;;;12.60;99.90;;;;;;5035679;28;20057;-81
2022/09/26 08:04:10;;;;;;;7.93;2.97;;;12.60;99.90;;;;;;5053278;28;20025;-81
2022/09/26 08:06:38;;;;;;;8.75;3.00;;;12.50;99.90;;;;;;5035536;28;20123;-81
2022/09/26 08:09:04;;;;;;;9.32;3.33;;;12.50;99.90;;;;;;5035264;28;20035;-81
2022/09/26 08:11:48;;;;;;;5.38;2.58;;;12.50;99.90;;;;;;5053828;28;20363;-81
2022/09/26 08:14:40;;;;;;;5.90;2.40;;;12.50;99.90;;;;;;5037207;28;20500;-81
2022/09/26 08:17:16;;;;;;;5.82;2.38;;;12.50;99.90;;;;;;5050417;28;20032;-81
2022/09/26 08:19:42;;;;;;;4.78;2.05;;;12.50;99.90;;;;;;5034965;28;20040;-81
2022/09/26 08:22:08;;;;;;;10.75;2.42;;;12.50;99.90;;;;;;5035644;28;20025;-81
2022/09/26 08:24:34;;;;;;;5.32;2.45;;;12.40;99.90;;;;;;5035218;28;20036;-81
2022/09/26 08:27:00;;;;;;;7.85;2.67;;;12.40;99.90;;;;;;5052823;28;20489;-81
2022/09/26 08:29:33;;;;;;;5.35;2.70;;;12.40;99.90;;;;;;5051331;28;20036;-81
2022/09/26 08:32:02;;;;;;;4.13;2.00;;;12.40;99.90;;;;;;5035158;28;20028;-81
2022/09/26 08:34:30;;;;;;;5.97;2.05;;;12.40;99.90;;;;;;5051401;28;20025;-81
2022/09/26 08:37:16;;;;;;;6.05;2.30;;;12.40;99.90;;;;;;5052488;28;20095;-81
2022/09/26 08:40:01;;;;;;;4.80;2.05;;;12.40;99.90;;;;;;5052578;28;20040;-81
2022/09/26 08:43:03;;;;;;;7.60;2.20;;;12.40;99.90;;;;;;5053418;28;20048;-81
2022/09/26 08:49:38;;;;;;;8.43;2.38;;;12.40;99.90;;;;;;5034436;28;20032;-81
2022/09/26 08:52:37;;;;;;;10.35;2.00;;;12.40;99.90;;;;;;5034690;28;20043;-81
2022/09/26 08:55:15;;;;;;;6.57;1.95;;;12.40;99.90;;;;;;5034730;28;20029;-82
2022/09/26 08:58:07;;;;;;;5.70;1.90;;;12.40;99.90;;;;;;5034656;28;20320;-81
2022/09/26 09:00:37;;;;;;;5.95;1.60;;;12.30;99.90;;;;;;5030392;28;20513;-81
2022/09/26 09:03:43;;;;;;;4.93;2.05;;;12.30;99.90;;;;;;5034614;28;20036;-81
2022/09/26 09:06:11;;;;;;;6.87;2.20;;;12.30;99.90;;;;;;4951563;28;20031;-81
2022/09/26 09:08:48;;;;;;;8.90;2.20;;;12.40;99.90;;;;;;5016388;28;20103;-81
2022/09/26 09:11:37;;;;;;;5.82;1.90;;;12.40;99.90;;;;;;5049337;28;20293;-81
2022/09/26 09:14:31;;;;;;;6.07;1.85;;;12.30;99.90;;;;;;5034326;28;20040;-81
2022/09/26 09:17:21;;;;;;;6.20;2.43;;;12.30;99.90;;;;;;5051987;28;20048;-81
2022/09/26 09:20:27;;;;;;;6.45;1.90;;;12.30;99.90;;;;;;5051817;28;20495;-81
2022/09/26 09:23:29;;;;;;;7.23;2.20;;;12.30;99.90;;;;;;5052261;28;20036;-81
2022/09/26 09:26:21;;;;;;;4.97;2.10;;;12.30;99.90;;;;;;5051760;28;20028;-81
2022/09/26 09:31:39;;;;;;;7.45;2.38;;;12.40;99.90;;;;;;5008222;28;20049;-82
2022/09/26 09:34:42;;;;;;;5.47;2.45;;;12.40;99.90;;;;;;4970545;28;20158;-82
2022/09/26 09:37:45;;;;;;;8.20;2.60;;;12.40;99.90;;;;;;5003136;28;20088;-82
2022/09/26 09:40:32;;;;;;;5.88;2.40;;;12.50;99.90;;;;;;5010441;28;20033;-82
2022/09/26 09:43:04;;;;;;;5.17;2.10;;;12.50;99.90;;;;;;4994575;28;20069;-81
2022/09/26 09:45:49;;;;;;;4.78;2.28;;;12.50;99.90;;;;;;4994342;28;20482;-82
2022/09/26 09:48:15;;;;;;;7.67;2.47;;;12.50;99.90;;;;;;5011914;28;20109;-82
2022/09/26 09:50:41;;;;;;;4.72;2.25;;;12.50;99.90;;;;;;4993965;28;20195;-81
2022/09/26 09:53:10;;;;;;;4.18;2.05;;;12.60;99.90;;;;;;4994186;28;20545;-82
2022/09/26 09:56:03;;;;;;;4.80;2.22;;;12.60;99.90;;;;;;4993893;28;20057;-82
2022/09/26 09:58:40;;;;;;;3.85;2.15;;;12.60;99.90;;;;;;4993898;28;20072;-82
2022/09/26 10:01:26;;;;;;;5.45;2.35;;;12.70;99.90;;;;;;4994352;28;20085;-82
2022/09/26 10:04:14;;;;;;;4.22;2.10;;;12.70;99.90;;;;;;4993989;28;20026;-82
2022/09/26 10:06:40;;;;;;;7.80;2.72;;;12.70;99.90;;;;;;4993771;28;20113;-83
2022/09/26 10:09:23;;;;;;;5.22;2.53;;;12.70;99.90;;;;;;4993535;28;20056;-83
2022/09/26 10:12:16;;;;;;;5.18;2.63;;;12.70;99.90;;;;;;5010926;28;20061;-82
2022/09/26 10:15:05;;;;;;;6.35;2.88;;;12.80;99.90;;;;;;5011779;28;20052;-82
2022/09/26 10:18:16;;;;;;;5.13;2.63;;;12.80;99.90;;;;;;4996518;28;20052;-83
2022/09/26 10:21:18;;;;;;;7.25;2.97;;;12.80;99.90;;;;;;4993405;28;20033;-82
2022/09/26 10:23:49;;;;;;;8.38;2.90;;;12.80;99.90;;;;;;4993073;28;20030;-83
2022/09/26 10:26:35;;;;;;;6.72;2.40;;;12.90;99.90;;;;;;5011331;28;20116;-83
2022/09/26 10:29:24;;;;;;;6.82;2.17;;;12.90;99.90;;;;;;4993408;28;20478;-83
2022/09/26 10:31:56;;;;;;;6.63;2.38;;;12.90;99.90;;;;;;4993459;28;20593;-83
2022/09/26 10:34:27;;;;;;;5.65;2.08;;;12.90;99.90;;;;;;4993620;28;20029;-83
2022/09/26 10:36:54;;;;;;;6.82;2.00;;;12.90;99.90;;;;;;5010977;28;20025;-83
2022/09/26 10:42:19;;;;;;;4.43;2.00;;;12.90;99.90;;;;;;5009874;28;20171;-83
2022/09/26 10:44:49;;;;;;;7.95;2.53;;;13.00;99.90;;;;;;4993461;28;20065;-82
2022/09/26 10:47:24;;;;;;;6.00;2.45;;;13.00;99.90;;;;;;5011071;28;20037;-83
2022/09/26 10:50:29;;;;;;;8.02;2.42;;;13.00;99.90;;;;;;5010746;28;20063;-82
2022/09/26 10:53:22;;;;;;;6.50;2.53;;;13.20;99.90;;;;;;4987594;28;20034;-83
2022/09/26 10:55:56;;;;;;;8.15;2.65;;;13.20;99.90;;;;;;5009294;28;20034;-82
2022/09/26 10:58:26;;;;;;;6.65;2.40;;;13.30;99.90;;;;;;4993341;28;20026;-82
2022/09/26 11:00:58;;;;;;;5.05;2.42;;;13.30;99.90;;;;;;4993016;28;20026;-82
2022/09/26 11:03:40;;;;;;;4.53;2.17;;;13.30;99.90;;;;;;4993312;28;20033;-82
2022/09/26 11:06:34;;;;;;;6.28;2.38;;;13.40;99.90;;;;;;5009471;28;20033;-83
2022/09/26 11:09:26;;;;;;;4.95;2.00;;;13.40;99.90;;;;;;4993027;28;20191;-82
2022/09/26 11:12:24;;;;;;;4.95;2.00;;;13.50;99.90;;;;;;5011159;28;20092;-82
2022/09/26 11:15:03;;;;;;;3.95;2.10;;;13.50;99.90;;;;;;4993190;28;20572;-82
2022/09/26 11:17:43;;;;;;;5.93;2.60;;;13.50;99.90;;;;;;4993039;28;20040;-83
2022/09/26 11:20:43;;;;;;;5.25;2.38;;;13.60;99.90;;;;;;4992845;28;20045;-82
2022/09/26 11:23:39;;;;;;;6.05;2.30;;;13.60;99.90;;;;;;5010833;28;20030;-82
2022/09/26 11:26:34;;;;;;;5.20;2.42;;;13.60;99.90;;;;;;4978611;28;20042;-82
2022/09/26 11:29:43;;;;;;;4.70;2.20;;;13.70;99.90;;;;;;5013103;28;20213;-82
2022/09/26 11:32:17;;;;;;;5.97;2.25;;;13.70;99.90;;;;;;4996856;28;20033;-82
2022/09/26 11:35:02;;;;;;;6.40;2.47;;;13.70;99.90;;;;;;4998672;28;20041;-82
2022/09/26 11:37:29;;;;;;;5.57;1.98;;;13.70;99.90;;;;;;5013194;28;20053;-82
2022/09/26 11:40:05;;;;;;;4.95;2.33;;;13.70;99.90;;;;;;5012753;28;20057;-83
2022/09/26 11:43:01;;;;;;;8.68;2.50;;;13.80;99.90;;;;;;4996670;28;20506;-82
2022/09/26 11:45:41;;;;;;;5.75;2.00;;;13.80;99.90;;;;;;4996608;28;20457;-82
2022/09/26 11:48:50;;;;;;;3.47;1.63;;;13.90;99.90;;;;;;5014254;28;20049;-82
2022/09/26 11:52:03;;;;;;;4.55;1.92;;;13.90;99.90;;;;;;5014597;28;20133;-82
2022/09/26 11:54:37;;;;;;;5.32;1.60;;;14.00;99.90;;;;;;5014143;28;20038;-82
2022/09/26 11:57:47;;;;;;;5.78;1.77;;;13.90;99.90;;;;;;5012535;28;20112;-82
2022/09/26 12:00:26;;;;;;;5.85;2.00;;;14.00;99.90;;;;;;5013581;28;20113;-83
2022/09/26 12:03:30;;;;;;;6.30;1.77;;;14.00;99.90;;;;;;5013950;28;20038;-83
2022/09/26 12:06:00;;;;;;;3.63;1.77;;;13.90;99.90;;;;;;5013534;28;20329;-82
2022/09/26 12:09:23;;;;;;;5.93;2.05;;;13.90;99.90;;;;;;5012914;28;20053;-83
2022/09/26 12:12:08;;;;;;;5.40;1.98;;;13.90;99.90;;;;;;4972072;28;20138;-83
2022/09/26 12:14:39;;;;;;;4.32;1.80;;;13.80;99.90;;;;;;4972154;28;20114;-83
2022/09/26 12:17:19;;;;;;;7.38;2.35;;;13.80;99.90;;;;;;5003525;28;20046;-82
2022/09/26 12:20:01;;;;;;;5.63;1.88;;;13.70;99.90;;;;;;5013318;28;20406;-83
2022/09/26 12:22:34;;;;;;;4.07;1.90;;;13.60;99.90;;;;;;4995974;28;20038;-83
2022/09/26 12:25:25;;;;;;;4.15;2.05;;;13.60;99.90;;;;;;4995934;28;20026;-82
2022/09/26 12:28:15;;;;;;;6.20;2.30;;;13.60;99.90;;;;;;5012181;28;20026;-82
2022/09/26 12:31:16;;;;;;;5.95;2.10;;;13.60;99.90;;;;;;5011664;28;20038;-82
2022/09/26 12:34:06;;;;;;;3.95;2.00;;;13.60;99.90;;;;;;4988664;28;20046;-82
2022/09/26 12:36:39;;;;;;;4.53;2.25;;;13.60;99.90;;;;;;5013014;28;20033;-82
2022/09/26 12:39:14;;;;;;;3.55;1.95;;;13.50;99.90;;;;;;5012936;28;20034;-82
2022/09/26 12:41:56;;;;;;;7.85;1.88;;;13.50;99.90;;;;;;4995568;28;20026;-83
2022/09/26 12:44:52;;;;;;;5.90;2.00;;;13.50;99.90;;;;;;5013228;28;20479;-82
2022/09/26 12:47:56;;;;;;;4.18;1.85;;;13.50;99.90;;;;;;4995352;28;20037;-82
2022/09/26 12:50:28;;;;;;;8.15;1.90;;;13.50;99.90;;;;;;5012810;28;20034;-83
2022/09/26 12:52:53;;;;;;;5.07;1.85;;;13.50;99.90;;;;;;4995552;28;20030;-83
2022/09/26 12:55:48;;;;;;;5.07;2.15;;;13.50;99.90;;;;;;4995477;28;20034;-83
2022/09/26 12:58:32;;;;;;;7.15;2.42;;;13.50;99.90;;;;;;5012871;28;20022;-83
2022/09/26 13:01:22;;;;;;;5.22;2.17;;;13.50;99.90;;;;;;4995118;28;20029;-82
2022/09/26 13:03:48;;;;;;;6.43;2.10;;;13.50;99.90;;;;;;5011631;28;20368;-82
2022/09/26 13:06:19;;;;;;;6.80;2.10;;;13.50;99.90;;;;;;5013083;28;20041;-82
2022/09/26 13:09:11;;;;;;;6.25;2.05;;;13.40;99.90;;;;;;5012715;28;20030;-83
2022/09/26 13:12:07;;;;;;;5.70;2.08;;;13.40;99.90;;;;;;5012834;28;20042;-82
2022/09/26 13:14:42;;;;;;;6.53;2.17;;;13.40;99.90;;;;;;5012725;28;20120;-82
2022/09/26 13:17:20;;;;;;;8.30;2.40;;;13.30;99.90;;;;;;4994820;28;20036;-83
2022/09/26 13:19:53;;;;;;;5.63;2.00;;;13.30;99.90;;;;;;5012446;28;20110;-82
2022/09/26 13:22:47;;;;;;;6.97;2.67;;;13.30;99.90;;;;;;5012704;28;20478;-83
2022/09/26 13:25:18;;;;;;;6.38;2.35;;;13.30;99.90;;;;;;4995312;28;20076;-82
2022/09/26 13:28:03;;;;;;;4.68;1.95;;;13.30;99.90;;;;;;5012276;28;20471;-83
2022/09/26 13:30:39;;;;;;;5.22;2.05;;;13.30;99.90;;;;;;5011861;28;20038;-83
2022/09/26 13:33:34;;;;;;;5.32;2.15;;;13.30;99.90;;;;;;5012260;28;20395;-82
2022/09/26 13:36:02;;;;;;;4.80;2.30;;;13.30;99.90;;;;;;5011810;28;20072;-82
2022/09/26 13:38:52;;;;;;;4.85;2.08;;;13.20;99.90;;;;;;5012045;28;20053;-82
2022/09/26 13:41:27;;;;;;;7.15;2.53;;;13.20;99.90;;;;;;5011929;28;20120;-82
2022/09/26 13:44:17;;;;;;;6.15;2.33;;;13.20;99.90;;;;;;5010990;28;20479;-83
2022/09/26 13:47:21;;;;;;;6.15;2.40;;;13.20;99.90;;;;;;5011064;28;20057;-82
2022/09/26 13:50:26;;;;;;;5.10;2.55;;;13.20;99.90;;;;;;4938024;28;20515;-82
2022/09/26 13:53:03;;;;;;;6.35;2.40;;;13.20;99.90;;;;;;5011892;28;20061;-82
2022/09/26 13:55:29;;;;;;;6.65;2.10;;;13.10;99.90;;;;;;5011888;28;20037;-82
2022/09/26 13:58:05;;;;;;;7.07;2.25;;;13.10;99.90;;;;;;4994142;28;20026;-82